KRBD

Dallas Executive Airport

Dallas, Texas, USA
METAR KRBD 191453Z 17008KT 10SM OVC017 04/M04 A3022 RMK AO2 SLP235 T00441044 50001
Observed Flight Rules
Jan-19 @ 14:53 UTC (35 minutes ago) Marginal Visual Flight Rules
Wind Visibility Clouds
170° at 8 knots 10 miles
  • Overcast at 1,700' AGL
Temperatures Readings
Current 4°C / 39°F
Dewpoint -4°C / 25°F
Humidity 56%
Altimeter 30.22" Hg
Pressure 1023.5 hPa
Elevation 203
METAR KRBD 191453Z 17008KT 10SM OVC017 04/M04 A3022 RMK AO2 SLP235 T00441044 50001
Observed Flight Rules
Jan-19 @ 14:53 UTC
(35 minutes ago)
MVFR
Wind Visibility
170° at 8 knots 10 miles
Clouds
  • Overcast at 1,700' AGL
Temperature Dewpoint
4°C / 39°F -4°C / 25°F
Humidity Altimeter Pressure
56% 30.22" Hg 1023.5 hPa